createdAt,value
2023-05-02T00:01:05.268Z,2.20
2023-05-02T00:06:01.272Z,2.42
2023-05-02T00:08:28.984Z,2.97
2023-05-02T00:10:56.280Z,2.53
2023-05-02T00:13:23.738Z,2.20
2023-05-02T00:15:51.120Z,2.13
2023-05-02T00:18:18.495Z,1.90
2023-05-02T00:20:46.079Z,2.15
2023-05-02T00:23:13.863Z,2.60
2023-05-02T00:25:46.178Z,3.00
2023-05-02T00:28:14.112Z,2.53
2023-05-02T00:30:45.613Z,2.00
2023-05-02T00:33:15.144Z,3.40
2023-05-02T00:35:42.954Z,2.67
2023-05-02T00:38:10.336Z,3.40
2023-05-02T00:43:22.268Z,2.92
2023-05-02T00:45:50.802Z,2.78
2023-05-02T00:48:20.804Z,2.83
2023-05-02T00:50:48.111Z,2.50
2023-05-02T00:53:15.531Z,2.58
2023-05-02T00:55:43.248Z,3.35
2023-05-02T00:58:15.053Z,3.00
2023-05-02T01:08:53.076Z,2.65
2023-05-02T01:14:06.627Z,2.55
2023-05-02T01:16:37.541Z,3.53
2023-05-02T01:19:06.599Z,3.28
2023-05-02T01:21:34.412Z,4.10
2023-05-02T01:29:21.146Z,4.83
2023-05-02T01:31:50.257Z,3.67
2023-05-02T01:34:19.807Z,2.70
2023-05-02T01:36:49.441Z,2.95
2023-05-02T01:39:22.040Z,3.15
2023-05-02T01:41:52.732Z,3.03
2023-05-02T01:44:23.078Z,3.22
2023-05-02T01:46:52.386Z,2.72
2023-05-02T01:49:19.928Z,3.33
2023-05-02T01:51:48.785Z,2.60
2023-05-02T01:54:18.080Z,3.17
2023-05-02T01:56:46.794Z,3.13
2023-05-02T01:59:18.785Z,2.97
2023-05-02T02:01:46.700Z,2.63
2023-05-02T02:04:15.627Z,3.08
2023-05-02T02:06:47.725Z,3.20
2023-05-02T02:09:15.235Z,3.53
2023-05-02T02:11:53.474Z,3.75
2023-05-02T02:14:23.098Z,2.83
2023-05-02T02:17:24.802Z,3.28
2023-05-02T02:19:54.382Z,3.13
2023-05-02T02:22:22.170Z,3.30
2023-05-02T02:24:51.870Z,3.20
2023-05-02T02:27:21.398Z,2.97
2023-05-02T02:29:48.876Z,2.92
2023-05-02T02:32:16.315Z,3.53
2023-05-02T02:34:43.756Z,3.13
2023-05-02T02:37:31.670Z,3.40
2023-05-02T02:40:06.815Z,2.88
2023-05-02T02:48:28.262Z,2.80
2023-05-02T02:53:41.101Z,3.35
2023-05-02T02:56:17.459Z,3.35
2023-05-02T02:58:59.022Z,3.28
2023-05-02T03:01:28.529Z,3.20
2023-05-02T03:03:57.108Z,2.38
2023-05-02T03:06:25.159Z,2.70
2023-05-02T03:08:53.218Z,3.10
2023-05-02T03:11:28.306Z,3.08
2023-05-02T03:13:57.961Z,3.30
2023-05-02T03:16:42.295Z,2.55
2023-05-02T03:19:15.430Z,3.03
2023-05-02T03:21:43.712Z,3.13
2023-05-02T03:24:19.022Z,2.60
2023-05-02T03:26:48.372Z,2.33
2023-05-02T03:29:19.871Z,2.65
2023-05-02T03:31:48.461Z,2.92
2023-05-02T03:34:15.928Z,3.05
2023-05-02T03:36:46.202Z,2.70
2023-05-02T03:39:13.617Z,2.70
2023-05-02T03:41:42.631Z,2.10
2023-05-02T03:44:14.236Z,2.03
2023-05-02T03:46:42.555Z,2.80
2023-05-02T03:49:12.656Z,2.90
2023-05-02T03:51:43.178Z,2.42
2023-05-02T03:54:10.935Z,2.85
2023-05-02T03:59:20.538Z,2.90
2023-05-02T04:01:50.953Z,2.28
2023-05-02T04:04:21.010Z,2.63
2023-05-02T04:06:52.226Z,2.80
2023-05-02T04:09:25.415Z,3.45
2023-05-02T04:12:02.542Z,2.13
2023-05-02T04:14:31.895Z,2.40
2023-05-02T04:16:59.903Z,2.28
2023-05-02T04:19:40.824Z,2.60
2023-05-02T04:22:08.822Z,2.30
2023-05-02T04:24:56.478Z,2.75
2023-05-02T04:27:25.381Z,2.33
2023-05-02T04:29:53.783Z,1.58
2023-05-02T04:32:21.680Z,2.15
2023-05-02T04:34:50.063Z,2.33
2023-05-02T04:37:18.815Z,2.40
2023-05-02T04:39:47.268Z,1.80
2023-05-02T04:42:19.261Z,2.13
2023-05-02T04:44:56.693Z,1.67
2023-05-02T04:47:24.128Z,1.52
2023-05-02T04:49:51.502Z,1.40
2023-05-02T04:52:19.062Z,1.50
2023-05-02T04:54:46.531Z,1.80
2023-05-02T04:57:14.000Z,1.90
2023-05-02T04:59:46.399Z,2.25
2023-05-02T05:02:13.966Z,2.00
2023-05-02T05:04:41.532Z,1.38
2023-05-02T05:07:10.253Z,1.33
2023-05-02T05:09:37.800Z,1.85
2023-05-02T05:12:06.332Z,1.95
2023-05-02T05:14:35.649Z,2.22
2023-05-02T05:17:03.580Z,2.10
2023-05-02T05:19:31.717Z,1.80
2023-05-02T05:21:59.165Z,1.70
2023-05-02T05:24:26.917Z,1.80
2023-05-02T05:26:57.028Z,1.92
2023-05-02T05:29:24.553Z,2.10
2023-05-02T05:31:51.973Z,1.52
2023-05-02T05:34:21.525Z,1.55
2023-05-02T05:36:51.523Z,1.73
2023-05-02T05:39:20.204Z,1.70
2023-05-02T05:41:50.985Z,1.70
2023-05-02T05:44:34.603Z,1.80
2023-05-02T05:47:02.468Z,1.60
2023-05-02T05:49:30.518Z,1.75
2023-05-02T05:51:58.019Z,1.17
2023-05-02T05:54:25.579Z,1.77
2023-05-02T05:56:53.598Z,1.10
2023-05-02T05:59:21.511Z,1.30
2023-05-02T06:01:49.304Z,1.48
2023-05-02T06:04:20.214Z,1.35
2023-05-02T06:06:51.725Z,1.30
2023-05-02T06:09:19.508Z,1.13
2023-05-02T06:11:46.881Z,1.08
2023-05-02T06:14:14.582Z,0.90
2023-05-02T06:16:42.896Z,0.90
2023-05-02T06:19:12.475Z,0.90
2023-05-02T06:21:40.149Z,0.70
2023-05-02T06:24:07.629Z,0.80
2023-05-02T06:26:35.098Z,0.85
2023-05-02T06:29:02.931Z,1.00
2023-05-02T06:31:30.495Z,0.73
2023-05-02T06:33:58.017Z,0.52
2023-05-02T06:36:41.169Z,0.82
2023-05-02T06:39:08.566Z,0.60
2023-05-02T06:41:36.012Z,0.75
2023-05-02T06:44:03.407Z,0.63
2023-05-02T06:46:32.151Z,0.90
2023-05-02T06:48:59.698Z,0.60
2023-05-02T06:51:28.005Z,0.63
2023-05-02T06:53:55.417Z,0.50
2023-05-02T06:56:22.874Z,0.73
2023-05-02T06:58:51.284Z,0.90
2023-05-02T07:01:18.827Z,0.60
2023-05-02T07:03:47.706Z,0.82
2023-05-02T07:06:15.254Z,0.60
2023-05-02T07:08:42.701Z,0.60
2023-05-02T07:11:10.108Z,0.55
2023-05-02T07:13:37.527Z,0.55
2023-05-02T07:16:05.313Z,0.77
2023-05-02T07:18:32.702Z,0.50
2023-05-02T07:21:01.646Z,0.63
2023-05-02T07:23:29.140Z,0.63
2023-05-02T07:25:56.551Z,0.70
2023-05-02T07:28:23.883Z,0.35
2023-05-02T07:30:51.455Z,0.45
2023-05-02T07:33:34.553Z,0.80
2023-05-02T07:36:03.210Z,0.60
2023-05-02T07:38:30.618Z,0.63
2023-05-02T07:40:59.512Z,0.50
2023-05-02T07:43:28.327Z,0.57
2023-05-02T07:45:59.800Z,0.30
2023-05-02T07:48:27.870Z,0.60
2023-05-02T07:50:55.454Z,0.40
2023-05-02T07:53:22.720Z,0.30
2023-05-02T07:55:50.352Z,0.63
2023-05-02T07:58:17.832Z,0.50
2023-05-02T08:00:45.284Z,0.38
2023-05-02T08:03:12.870Z,0.47
2023-05-02T08:05:40.321Z,0.40
2023-05-02T08:08:08.276Z,0.45
2023-05-02T08:10:35.774Z,0.50
2023-05-02T08:13:03.149Z,0.40
2023-05-02T08:15:31.005Z,0.52
2023-05-02T08:17:58.507Z,0.47
2023-05-02T08:20:26.037Z,0.43
2023-05-02T08:22:53.496Z,0.93
2023-05-02T08:25:21.194Z,0.30
2023-05-02T08:27:48.539Z,0.70
2023-05-02T08:30:15.965Z,0.95
2023-05-02T08:32:43.673Z,1.27
2023-05-02T08:35:11.281Z,0.80
2023-05-02T08:37:40.261Z,0.80
2023-05-02T08:40:12.830Z,0.80
2023-05-02T08:42:44.029Z,0.70
2023-05-02T08:45:16.531Z,0.40
2023-05-02T08:47:45.089Z,0.40
2023-05-02T08:50:12.528Z,0.35
2023-05-02T08:52:39.992Z,1.80
2023-05-02T08:55:08.215Z,0.90
2023-05-02T08:57:35.622Z,0.50
2023-05-02T09:00:03.246Z,0.77
2023-05-02T09:05:42.829Z,0.77
2023-05-02T09:08:10.379Z,0.47
2023-05-02T09:10:38.104Z,0.40
2023-05-02T09:13:42.236Z,1.25
2023-05-02T09:16:12.231Z,0.70
2023-05-02T09:18:41.560Z,0.68
2023-05-02T09:21:22.288Z,0.68
2023-05-02T09:26:32.984Z,0.40
2023-05-02T09:29:04.093Z,0.35
2023-05-02T09:31:54.105Z,0.60
2023-05-02T09:34:23.098Z,0.50
2023-05-02T09:36:52.393Z,0.50
2023-05-02T09:39:25.587Z,0.65
2023-05-02T09:41:54.420Z,0.80
2023-05-02T09:44:26.085Z,0.60
2023-05-02T09:49:45.386Z,0.20
2023-05-02T09:52:18.512Z,0.63
2023-05-02T09:54:47.702Z,1.00
2023-05-02T09:57:15.100Z,0.57
2023-05-02T09:59:53.184Z,0.38
2023-05-02T10:02:22.211Z,0.40
2023-05-02T10:04:50.480Z,0.50
2023-05-02T10:07:18.170Z,0.43
2023-05-02T10:09:46.834Z,0.68
2023-05-02T10:12:15.793Z,1.20
2023-05-02T10:14:51.029Z,0.82
2023-05-02T10:17:25.427Z,0.77
2023-05-02T10:22:30.037Z,0.40
2023-05-02T10:24:58.951Z,0.68
2023-05-02T10:27:26.812Z,0.60
2023-05-02T10:29:55.253Z,0.35
2023-05-02T10:32:23.512Z,0.60
2023-05-02T10:34:51.974Z,0.43
2023-05-02T10:37:20.056Z,0.70
2023-05-02T10:39:47.613Z,0.45
2023-05-02T10:42:15.651Z,0.60
2023-05-02T10:44:43.231Z,0.30
2023-05-02T10:47:27.517Z,0.60
2023-05-02T10:50:03.830Z,0.73
2023-05-02T10:52:35.893Z,0.45
2023-05-02T10:55:23.673Z,1.00
2023-05-02T11:00:35.703Z,0.68
2023-05-02T11:03:03.536Z,0.50
2023-05-02T11:05:31.112Z,0.70
2023-05-02T11:10:58.470Z,0.70
2023-05-02T11:13:49.228Z,0.93
2023-05-02T11:16:16.801Z,0.68
2023-05-02T11:19:01.331Z,0.60
2023-05-02T11:21:29.951Z,0.80
2023-05-02T11:24:37.152Z,0.70
2023-05-02T11:29:52.772Z,0.70
2023-05-02T11:32:20.743Z,0.60
2023-05-02T11:34:52.848Z,0.70
2023-05-02T11:37:21.552Z,0.65
2023-05-02T11:39:48.994Z,0.40
2023-05-02T11:42:32.750Z,0.50
2023-05-02T11:45:01.579Z,0.40
2023-05-02T11:47:33.145Z,0.70
2023-05-02T11:50:05.228Z,1.00
2023-05-02T11:52:37.792Z,0.77
2023-05-02T11:55:09.578Z,0.60
2023-05-02T11:57:37.683Z,0.65
2023-05-02T12:00:06.085Z,0.85
2023-05-02T12:02:49.307Z,0.73
2023-05-02T12:05:29.618Z,0.50
2023-05-02T12:07:57.279Z,0.70
2023-05-02T12:10:36.588Z,0.80
2023-05-02T12:13:06.537Z,1.00
2023-05-02T12:15:34.341Z,0.63
2023-05-02T12:18:01.836Z,0.68
2023-05-02T12:20:29.641Z,0.70
2023-05-02T12:22:57.809Z,0.77
2023-05-02T12:25:25.322Z,1.05
2023-05-02T12:28:02.707Z,0.90
2023-05-02T12:30:31.103Z,0.80
2023-05-02T12:32:59.833Z,0.90
2023-05-02T12:35:27.941Z,0.88
2023-05-02T12:37:56.413Z,1.30
2023-05-02T12:40:24.043Z,0.70
2023-05-02T12:43:01.566Z,0.80
2023-05-02T12:45:33.825Z,0.90
2023-05-02T12:48:02.739Z,0.93
2023-05-02T12:50:46.229Z,0.90
2023-05-02T12:53:13.782Z,1.38
2023-05-02T12:55:41.752Z,1.05
2023-05-02T12:58:11.083Z,1.25
2023-05-02T13:00:40.481Z,1.00
2023-05-02T13:03:08.850Z,1.10
2023-05-02T13:05:36.940Z,0.88
2023-05-02T13:08:04.541Z,1.00
2023-05-02T13:10:32.206Z,1.17
2023-05-02T13:12:59.701Z,1.05
2023-05-02T13:15:27.315Z,0.85
2023-05-02T13:17:55.412Z,1.42
2023-05-02T13:20:23.775Z,1.33
2023-05-02T13:22:51.257Z,0.88
2023-05-02T13:25:18.747Z,1.08
2023-05-02T13:27:46.493Z,1.13
2023-05-02T13:30:13.982Z,1.27
2023-05-02T13:32:41.963Z,1.05
2023-05-02T13:35:10.134Z,1.40
2023-05-02T13:37:37.626Z,1.02
2023-05-02T13:40:05.728Z,1.30
2023-05-02T13:42:33.204Z,1.00
2023-05-02T13:45:03.270Z,1.02
2023-05-02T13:47:33.417Z,1.17
2023-05-02T13:50:01.065Z,1.60
2023-05-02T13:52:28.579Z,1.10
2023-05-02T13:54:56.136Z,1.20
2023-05-02T13:57:23.597Z,1.40
2023-05-02T13:59:51.560Z,1.77
2023-05-02T14:02:19.103Z,1.30
2023-05-02T14:04:46.526Z,1.10
2023-05-02T14:07:13.929Z,1.27
2023-05-02T14:09:41.267Z,1.30
2023-05-02T14:12:08.824Z,1.00
2023-05-02T14:14:36.451Z,1.10
2023-05-02T14:17:04.162Z,0.90
2023-05-02T14:19:31.772Z,1.10
2023-05-02T14:21:59.324Z,1.30
2023-05-02T14:24:26.976Z,1.10
2023-05-02T14:26:54.358Z,0.90
2023-05-02T14:29:21.975Z,1.20
2023-05-02T14:31:49.502Z,1.15
2023-05-02T14:34:16.985Z,1.50
2023-05-02T14:36:44.340Z,1.13
2023-05-02T14:39:11.854Z,0.85
2023-05-02T14:41:39.191Z,0.93
2023-05-02T14:44:06.709Z,1.35
2023-05-02T14:46:34.114Z,1.25
2023-05-02T14:49:01.664Z,1.27
2023-05-02T14:51:29.026Z,1.42
2023-05-02T14:53:56.353Z,1.42
2023-05-02T14:56:26.207Z,1.52
2023-05-02T14:58:53.666Z,1.23
2023-05-02T15:01:25.257Z,1.30
2023-05-02T15:04:06.139Z,1.10
2023-05-02T15:06:36.410Z,0.98
2023-05-02T15:09:05.286Z,1.10
2023-05-02T15:11:32.713Z,1.05
2023-05-02T15:14:00.116Z,1.10
2023-05-02T15:16:27.775Z,0.95
2023-05-02T15:18:55.520Z,1.38
2023-05-02T15:21:23.101Z,1.15
2023-05-02T15:23:50.954Z,1.00
2023-05-02T15:26:18.450Z,1.20
2023-05-02T15:28:46.131Z,0.90
2023-05-02T15:31:14.246Z,1.10
2023-05-02T15:33:41.656Z,1.60
2023-05-02T15:36:09.395Z,1.17
2023-05-02T15:38:39.783Z,1.23
2023-05-02T15:41:08.320Z,1.00
2023-05-02T15:43:36.324Z,1.08
2023-05-02T15:46:03.891Z,0.90
2023-05-02T15:48:33.783Z,1.13
2023-05-02T15:51:01.977Z,1.50
2023-05-02T15:53:29.632Z,1.13
2023-05-02T15:55:57.051Z,1.00
2023-05-02T15:58:24.502Z,1.45
2023-05-02T16:00:52.757Z,1.05
2023-05-02T16:03:20.277Z,0.82
2023-05-02T16:05:47.781Z,0.90
2023-05-02T16:08:15.105Z,0.90
2023-05-02T16:10:43.756Z,0.90
2023-05-02T16:13:11.128Z,1.10
2023-05-02T16:15:39.447Z,0.73
2023-05-02T16:18:07.072Z,0.80
2023-05-02T16:20:36.858Z,0.90
2023-05-02T16:23:04.716Z,1.00
2023-05-02T16:25:32.185Z,0.88
2023-05-02T16:27:59.929Z,0.98
2023-05-02T16:30:28.401Z,1.15
2023-05-02T16:32:56.008Z,1.08
2023-05-02T16:35:23.450Z,1.17
2023-05-02T16:37:50.929Z,1.38
2023-05-02T16:40:18.308Z,2.28
2023-05-02T16:42:45.680Z,1.67
2023-05-02T16:45:13.230Z,1.50
2023-05-02T16:47:41.418Z,1.20
2023-05-02T16:50:09.035Z,1.40
2023-05-02T16:52:38.279Z,1.25
2023-05-02T16:55:06.799Z,1.33
2023-05-02T16:57:34.201Z,1.30
2023-05-02T17:00:03.294Z,1.13
2023-05-02T17:02:33.960Z,1.00
2023-05-02T17:05:01.587Z,1.08
2023-05-02T17:07:31.190Z,1.00
2023-05-02T17:09:58.563Z,1.02
2023-05-02T17:12:26.023Z,1.38
2023-05-02T17:14:53.508Z,0.90
2023-05-02T17:17:23.740Z,0.82
2023-05-02T17:19:51.608Z,1.25
2023-05-02T17:22:19.435Z,1.30
2023-05-02T17:24:50.349Z,0.88
2023-05-02T17:27:17.796Z,1.20
2023-05-02T17:29:45.257Z,1.02
2023-05-02T17:32:14.985Z,1.02
2023-05-02T17:34:43.623Z,0.70
2023-05-02T17:37:11.140Z,1.00
2023-05-02T17:39:38.583Z,1.00
2023-05-02T17:42:06.105Z,0.93
2023-05-02T17:44:36.469Z,1.13
2023-05-02T17:47:04.693Z,1.40
2023-05-02T17:49:33.763Z,1.13
2023-05-02T17:52:01.117Z,1.33
2023-05-02T17:54:28.591Z,1.13
2023-05-02T17:56:55.911Z,1.40
2023-05-02T17:59:23.371Z,1.17
2023-05-02T18:01:50.786Z,1.50
2023-05-02T18:04:18.762Z,1.58
2023-05-02T18:06:46.216Z,1.73
2023-05-02T18:09:13.685Z,1.40
2023-05-02T18:11:41.215Z,1.20
2023-05-02T18:14:08.740Z,1.50
2023-05-02T18:16:36.616Z,1.55
2023-05-02T18:19:04.239Z,1.45
2023-05-02T18:21:34.163Z,1.60
2023-05-02T18:24:01.772Z,1.58
2023-05-02T18:26:29.302Z,2.15
2023-05-02T18:28:57.709Z,1.60
2023-05-02T18:31:25.232Z,1.63
2023-05-02T18:33:55.453Z,2.05
2023-05-02T18:36:25.935Z,1.90
2023-05-02T18:38:54.103Z,1.88
2023-05-02T18:41:21.463Z,1.80
2023-05-02T18:43:49.345Z,1.60
2023-05-02T18:46:17.003Z,1.90
2023-05-02T18:48:44.781Z,1.90
2023-05-02T18:51:12.189Z,2.22
2023-05-02T18:53:39.549Z,2.40
2023-05-02T18:56:15.634Z,2.28
2023-05-02T18:58:43.494Z,2.13
2023-05-02T19:01:20.500Z,2.20
2023-05-02T19:03:48.165Z,2.55
2023-05-02T19:06:18.895Z,1.90
2023-05-02T19:08:47.388Z,2.10
2023-05-02T19:11:15.180Z,2.20
2023-05-02T19:13:42.486Z,3.20
2023-05-02T19:16:12.936Z,3.40
2023-05-02T19:18:41.044Z,3.15
2023-05-02T19:21:13.003Z,2.70
2023-05-02T19:23:42.142Z,3.10
2023-05-02T19:26:13.372Z,3.03
2023-05-02T19:28:40.843Z,2.65
2023-05-02T19:31:10.992Z,2.50
2023-05-02T19:33:39.421Z,2.63
2023-05-02T19:36:07.889Z,2.05
2023-05-02T19:38:35.516Z,2.50
2023-05-02T19:41:03.468Z,1.90
2023-05-02T19:43:31.607Z,2.00
2023-05-02T19:45:59.166Z,1.98
2023-05-02T19:48:26.717Z,2.15
2023-05-02T19:50:55.013Z,2.30
2023-05-02T19:53:22.415Z,2.00
2023-05-02T19:55:49.919Z,2.08
2023-05-02T19:58:17.382Z,2.10
2023-05-02T20:01:00.987Z,2.10
2023-05-02T20:03:28.710Z,1.95
2023-05-02T20:05:57.744Z,1.67
2023-05-02T20:08:28.273Z,1.77
2023-05-02T20:10:56.737Z,1.50
2023-05-02T20:13:24.310Z,1.90
2023-05-02T20:15:52.345Z,1.80
2023-05-02T20:18:20.264Z,2.10
2023-05-02T20:20:48.010Z,1.50
2023-05-02T20:23:16.253Z,1.40
2023-05-02T20:25:44.168Z,1.60
2023-05-02T20:28:11.651Z,1.42
2023-05-02T20:30:40.402Z,1.25
2023-05-02T20:33:15.724Z,1.30
2023-05-02T20:35:44.282Z,1.30
2023-05-02T20:38:12.401Z,1.20
2023-05-02T20:40:40.999Z,1.95
2023-05-02T20:43:09.052Z,1.52
2023-05-02T20:45:36.415Z,1.60
2023-05-02T20:48:04.041Z,1.70
2023-05-02T20:50:31.547Z,1.88
2023-05-02T20:53:14.584Z,1.80
2023-05-02T20:55:41.965Z,2.58
2023-05-02T20:58:09.677Z,2.35
2023-05-02T21:00:37.266Z,2.20
2023-05-02T21:03:04.781Z,2.30
2023-05-02T21:05:32.224Z,1.92
2023-05-02T21:07:59.569Z,2.83
2023-05-02T21:10:28.191Z,1.77
2023-05-02T21:12:55.782Z,1.60
2023-05-02T21:15:23.403Z,1.95
2023-05-02T21:17:52.666Z,1.60
2023-05-02T21:20:20.121Z,1.40
2023-05-02T21:22:47.458Z,1.20
2023-05-02T21:25:14.871Z,1.40
2023-05-02T21:27:42.338Z,1.52
2023-05-02T21:30:10.526Z,1.30
2023-05-02T21:32:37.912Z,1.02
2023-05-02T21:35:05.813Z,1.23
2023-05-02T21:37:44.907Z,2.15
2023-05-02T21:40:12.884Z,2.60
2023-05-02T21:42:40.594Z,1.70
2023-05-02T21:45:08.759Z,1.35
2023-05-02T21:47:36.225Z,1.75
2023-05-02T21:50:05.431Z,1.80
2023-05-02T21:52:32.922Z,1.45
2023-05-02T21:55:00.254Z,1.60
2023-05-02T21:57:27.683Z,1.42
2023-05-02T21:59:55.062Z,1.52
2023-05-02T22:02:23.971Z,1.50
2023-05-02T22:04:51.489Z,1.45
2023-05-02T22:07:19.098Z,1.77
2023-05-02T22:09:46.707Z,1.88
2023-05-02T22:12:14.178Z,1.80
2023-05-02T22:14:45.107Z,1.00
2023-05-02T22:17:13.822Z,1.60
2023-05-02T22:19:42.165Z,1.52
2023-05-02T22:22:09.683Z,1.98
2023-05-02T22:24:37.003Z,2.13
2023-05-02T22:27:04.704Z,1.75
2023-05-02T22:29:31.986Z,1.90
2023-05-02T22:31:59.364Z,2.10
2023-05-02T22:34:26.750Z,1.90
2023-05-02T22:36:54.230Z,2.13
2023-05-02T22:39:21.931Z,1.92
2023-05-02T22:41:49.250Z,3.03
2023-05-02T22:44:16.704Z,2.00
2023-05-02T22:46:44.282Z,1.70
2023-05-02T22:49:11.805Z,1.38
2023-05-02T22:51:40.452Z,1.92
2023-05-02T22:54:08.344Z,1.73
2023-05-02T22:56:35.899Z,1.80
2023-05-02T22:59:03.586Z,0.95
2023-05-02T23:01:31.158Z,1.13
2023-05-02T23:03:58.601Z,1.23
2023-05-02T23:06:28.846Z,1.60
2023-05-02T23:08:56.407Z,1.60
2023-05-02T23:11:23.791Z,0.90
2023-05-02T23:13:51.132Z,1.20
2023-05-02T23:16:18.609Z,1.40
2023-05-02T23:18:47.560Z,1.10
2023-05-02T23:21:16.322Z,1.17
2023-05-02T23:23:44.076Z,1.10
2023-05-02T23:26:11.787Z,0.80
2023-05-02T23:28:39.843Z,1.02
2023-05-02T23:31:08.198Z,0.98
2023-05-02T23:33:36.387Z,1.20
2023-05-02T23:36:04.100Z,1.15
2023-05-02T23:38:31.704Z,0.88
2023-05-02T23:40:59.199Z,0.90
2023-05-02T23:43:26.980Z,1.10
2023-05-02T23:45:54.589Z,1.08
2023-05-02T23:48:22.122Z,0.80
2023-05-02T23:50:49.503Z,1.30
2023-05-02T23:53:16.829Z,0.95
2023-05-02T23:55:44.197Z,0.80
2023-05-02T23:58:11.686Z,0.85
